Time;durP1;ratioP1;P1;durP2;ratioP2;P2;SDS_P1;SDS_P2;PMS_P1;PMS_P2;Temp;Humidity;BMP_temperature;BMP_pressure;BME280_temperature;BME280_humidity;BME280_pressure;Samples;Min_cycle;Max_cycle;Signal;HPM_P1;HPM_P2
2022/05/25 00:00:39;;;;;;;18.33;5.63;;;;;;;;;;5091815;28;20943;-69
2022/05/25 00:03:08;;;;;;;16.40;5.33;;;;;;;;;;5091915;28;20454;-69
2022/05/25 00:05:35;;;;;;;17.07;6.33;;;;;;;;;;5091683;28;20523;-69
2022/05/25 00:08:04;;;;;;;15.83;5.67;;;;;;;;;;5091725;28;20445;-69
2022/05/25 00:10:31;;;;;;;14.93;5.07;;;;;;;;;;5091655;28;20525;-69
2022/05/25 00:12:58;;;;;;;16.67;5.50;;;;;;;;;;5091727;28;20437;-69
2022/05/25 00:15:28;;;;;;;14.47;5.00;;;;;;;;;;5091328;28;20477;-69
2022/05/25 00:17:56;;;;;;;15.80;5.00;;;;;;;;;;5091723;28;20555;-69
2022/05/25 00:20:23;;;;;;;15.50;5.20;;;;;;;;;;5091771;28;20433;-69
2022/05/25 00:22:52;;;;;;;15.30;5.20;;;;;;;;;;5091840;28;20974;-69
2022/05/25 00:25:21;;;;;;;16.80;5.20;;;;;;;;;;5091501;28;20519;-69
2022/05/25 00:27:49;;;;;;;15.97;5.10;;;;;;;;;;5091481;28;20473;-70
2022/05/25 00:30:17;;;;;;;18.10;5.73;;;;;;;;;;5091775;28;20456;-69
2022/05/25 00:32:46;;;;;;;16.33;6.03;;;;;;;;;;5091635;28;20899;-69
2022/05/25 00:35:14;;;;;;;15.67;5.67;;;;;;;;;;5091107;28;20461;-70
2022/05/25 00:37:43;;;;;;;15.03;5.07;;;;;;;;;;5091625;28;20962;-69
2022/05/25 00:40:12;;;;;;;16.43;5.67;;;;;;;;;;5091431;28;20442;-69
2022/05/25 00:42:39;;;;;;;15.57;5.30;;;;;;;;;;5091350;28;20437;-69
2022/05/25 00:45:08;;;;;;;18.67;5.30;;;;;;;;;;5091818;28;20521;-69
2022/05/25 00:47:36;;;;;;;15.97;5.77;;;;;;;;;;5091186;28;20445;-69
2022/05/25 00:50:06;;;;;;;16.20;4.80;;;;;;;;;;5091623;28;20529;-70
2022/05/25 00:52:34;;;;;;;15.37;4.73;;;;;;;;;;5091522;28;20445;-70
2022/05/25 00:55:04;;;;;;;15.70;5.23;;;;;;;;;;5091373;28;20836;-70
2022/05/25 00:57:32;;;;;;;15.13;5.30;;;;;;;;;;5092384;28;20477;-70
2022/05/25 01:00:04;;;;;;;15.50;5.60;;;;;;;;;;5095005;28;20462;-70
2022/05/25 01:02:32;;;;;;;16.60;5.70;;;;;;;;;;5095020;28;20437;-70
2022/05/25 01:05:00;;;;;;;15.03;4.97;;;;;;;;;;5095004;28;20446;-69
2022/05/25 01:07:37;;;;;;;22.00;5.97;;;;;;;;;;5094702;28;20461;-70
2022/05/25 01:10:12;;;;;;;16.23;5.50;;;;;;;;;;5094887;28;20438;-69
2022/05/25 01:12:51;;;;;;;15.43;4.53;;;;;;;;;;5094920;28;20498;-70
2022/05/25 01:15:23;;;;;;;13.63;3.83;;;;;;;;;;5094446;28;20445;-70
2022/05/25 01:17:58;;;;;;;21.53;4.70;;;;;;;;;;5094890;28;20492;-70
2022/05/25 01:20:30;;;;;;;15.90;4.93;;;;;;;;;;5095101;28;20449;-69
2022/05/25 01:23:16;;;;;;;18.70;4.47;;;;;;;;;;5095053;28;20438;-69
2022/05/25 01:26:07;;;;;;;15.03;5.00;;;;;;;;;;5064134;28;20442;-70
2022/05/25 01:28:41;;;;;;;15.23;4.90;;;;;;;;;;5095162;28;20528;-70
2022/05/25 01:31:12;;;;;;;17.97;4.80;;;;;;;;;;5094926;28;20434;-69
2022/05/25 01:33:42;;;;;;;16.87;4.60;;;;;;;;;;5094522;28;20437;-69
2022/05/25 01:36:13;;;;;;;15.67;4.70;;;;;;;;;;5093949;28;20484;-70
2022/05/25 01:38:43;;;;;;;15.10;3.97;;;;;;;;;;5094289;28;20448;-70
2022/05/25 01:41:13;;;;;;;16.80;5.00;;;;;;;;;;5094329;28;20436;-70
2022/05/25 01:43:44;;;;;;;18.27;4.53;;;;;;;;;;5094159;28;20957;-70
2022/05/25 01:46:16;;;;;;;15.67;4.00;;;;;;;;;;5094200;28;20452;-70
2022/05/25 01:48:44;;;;;;;18.60;4.23;;;;;;;;;;5094437;28;20812;-70
2022/05/25 01:51:13;;;;;;;15.03;4.13;;;;;;;;;;5093822;28;20547;-70
2022/05/25 01:53:42;;;;;;;16.50;4.90;;;;;;;;;;5094243;28;20436;-70
2022/05/25 01:56:11;;;;;;;15.50;4.47;;;;;;;;;;5094529;28;20479;-69
2022/05/25 01:58:40;;;;;;;15.83;4.20;;;;;;;;;;5093931;28;20927;-70
2022/05/25 02:01:09;;;;;;;15.47;4.40;;;;;;;;;;5094089;28;20440;-69
2022/05/25 02:06:38;;;;;;;15.47;4.33;;;;;;;;;;5093890;28;20839;-69
2022/05/25 02:09:23;;;;;;;14.90;4.73;;;;;;;;;;5093020;28;20493;-70
2022/05/25 02:11:52;;;;;;;14.37;5.07;;;;;;;;;;5093863;28;20498;-70
2022/05/25 02:14:34;;;;;;;16.50;5.43;;;;;;;;;;5093874;28;20541;-70
2022/05/25 02:17:05;;;;;;;15.20;4.60;;;;;;;;;;5093587;28;20576;-70
2022/05/25 02:19:37;;;;;;;19.10;5.30;;;;;;;;;;5092962;28;20539;-70
2022/05/25 02:22:07;;;;;;;15.83;4.13;;;;;;;;;;5093714;28;20896;-70
2022/05/25 02:24:37;;;;;;;13.50;3.37;;;;;;;;;;5093429;28;20442;-70
2022/05/25 02:27:06;;;;;;;16.73;4.27;;;;;;;;;;5093601;28;20441;-69
2022/05/25 02:29:37;;;;;;;14.23;4.27;;;;;;;;;;5093301;28;20452;-70
2022/05/25 02:32:08;;;;;;;13.93;3.90;;;;;;;;;;5093344;28;20441;-70
2022/05/25 02:34:40;;;;;;;15.33;4.37;;;;;;;;;;5093158;28;20462;-70
2022/05/25 02:37:08;;;;;;;14.87;4.50;;;;;;;;;;5093203;28;20521;-70
2022/05/25 02:39:36;;;;;;;14.47;4.30;;;;;;;;;;5093166;28;20883;-70
2022/05/25 02:42:03;;;;;;;14.90;4.00;;;;;;;;;;5093030;28;20444;-70
2022/05/25 02:44:31;;;;;;;16.70;5.37;;;;;;;;;;5093006;28;20447;-70
2022/05/25 02:46:59;;;;;;;18.67;3.90;;;;;;;;;;5093130;28;20917;-70
2022/05/25 02:49:26;;;;;;;14.07;3.87;;;;;;;;;;5092792;28;20443;-70
2022/05/25 02:51:55;;;;;;;14.57;3.80;;;;;;;;;;5093342;28;20515;-70
2022/05/25 02:54:23;;;;;;;16.47;3.90;;;;;;;;;;5092843;28;20441;-69
2022/05/25 02:56:51;;;;;;;15.50;3.67;;;;;;;;;;5092692;28;20476;-70
2022/05/25 02:59:19;;;;;;;18.80;4.50;;;;;;;;;;5092663;28;20489;-69
2022/05/25 03:01:46;;;;;;;18.60;4.53;;;;;;;;;;5092758;28;20508;-70
2022/05/25 03:04:15;;;;;;;14.73;3.67;;;;;;;;;;5092595;28;20439;-69
2022/05/25 03:06:43;;;;;;;14.60;4.40;;;;;;;;;;5092553;28;20448;-70
2022/05/25 03:09:12;;;;;;;15.57;4.27;;;;;;;;;;5092649;28;21000;-70
2022/05/25 03:11:40;;;;;;;19.47;3.90;;;;;;;;;;5092554;28;20532;-69
2022/05/25 03:14:07;;;;;;;18.80;4.80;;;;;;;;;;5092778;28;20833;-71
2022/05/25 03:16:35;;;;;;;14.80;3.63;;;;;;;;;;5092301;28;20482;-70
2022/05/25 03:19:02;;;;;;;15.33;4.60;;;;;;;;;;5092394;28;20508;-70
2022/05/25 03:21:30;;;;;;;14.10;4.50;;;;;;;;;;5092448;28;20452;-70
2022/05/25 03:23:57;;;;;;;14.47;4.03;;;;;;;;;;5092448;28;20444;-69
2022/05/25 03:26:26;;;;;;;14.20;4.63;;;;;;;;;;5092285;28;20451;-70
2022/05/25 03:28:54;;;;;;;18.20;4.17;;;;;;;;;;5092320;28;20443;-70
2022/05/25 03:31:21;;;;;;;14.47;4.50;;;;;;;;;;5091971;28;20444;-70
2022/05/25 03:33:48;;;;;;;13.70;4.07;;;;;;;;;;5092162;28;20445;-70
2022/05/25 03:36:16;;;;;;;20.33;3.80;;;;;;;;;;5092265;28;20556;-70
2022/05/25 03:38:44;;;;;;;15.97;4.60;;;;;;;;;;5092132;28;21025;-70
2022/05/25 03:41:11;;;;;;;12.70;3.47;;;;;;;;;;5092423;28;20441;-70
2022/05/25 03:43:40;;;;;;;14.47;4.40;;;;;;;;;;5091972;28;20923;-71
2022/05/25 03:46:08;;;;;;;14.53;4.43;;;;;;;;;;5091988;28;20442;-70
2022/05/25 03:48:35;;;;;;;17.80;4.00;;;;;;;;;;5092420;28;20477;-70
2022/05/25 03:51:03;;;;;;;13.00;3.40;;;;;;;;;;5091903;28;20510;-70
2022/05/25 03:53:30;;;;;;;13.97;4.43;;;;;;;;;;5091820;28;20450;-70
2022/05/25 03:56:00;;;;;;;14.13;4.40;;;;;;;;;;5092013;28;20456;-70
2022/05/25 03:58:27;;;;;;;15.30;4.20;;;;;;;;;;5091872;28;20470;-70
2022/05/25 04:00:56;;;;;;;14.23;4.33;;;;;;;;;;5092105;28;20442;-70
2022/05/25 04:03:24;;;;;;;15.07;3.60;;;;;;;;;;5091880;28;20442;-70
2022/05/25 04:05:51;;;;;;;20.77;3.80;;;;;;;;;;5091769;28;20943;-70
2022/05/25 04:08:19;;;;;;;12.43;2.67;;;;;;;;;;5091917;28;20453;-70
2022/05/25 04:10:47;;;;;;;12.50;3.00;;;;;;;;;;5091880;28;20479;-70
2022/05/25 04:13:16;;;;;;;14.40;2.70;;;;;;;;;;5091919;28;20443;-71
2022/05/25 04:15:44;;;;;;;12.10;2.60;;;;;;;;;;5092099;28;20564;-70
2022/05/25 04:18:13;;;;;;;11.80;2.67;;;;;;;;;;5091899;28;20845;-70
2022/05/25 04:20:40;;;;;;;14.00;3.17;;;;;;;;;;5091641;28;20446;-70
2022/05/25 04:23:10;;;;;;;12.00;2.43;;;;;;;;;;5091536;28;20439;-71
2022/05/25 04:25:38;;;;;;;14.60;2.40;;;;;;;;;;5091475;28;20987;-70
2022/05/25 04:28:06;;;;;;;12.10;2.67;;;;;;;;;;5091589;28;20456;-70
2022/05/25 04:30:34;;;;;;;13.50;2.60;;;;;;;;;;5091636;28;20444;-70
2022/05/25 04:33:02;;;;;;;12.30;2.53;;;;;;;;;;5093734;28;20444;-70
2022/05/25 04:35:31;;;;;;;19.43;3.53;;;;;;;;;;5095331;28;20475;-70
2022/05/25 04:37:58;;;;;;;14.17;2.50;;;;;;;;;;5095270;28;20496;-70
2022/05/25 04:40:28;;;;;;;12.80;2.67;;;;;;;;;;5095718;28;20532;-70
2022/05/25 04:42:56;;;;;;;15.60;2.50;;;;;;;;;;5095589;28;20521;-70
2022/05/25 04:45:25;;;;;;;12.50;2.10;;;;;;;;;;5095111;28;20952;-70
2022/05/25 04:47:54;;;;;;;13.57;2.73;;;;;;;;;;5095654;28;20477;-70
2022/05/25 04:50:22;;;;;;;12.37;2.33;;;;;;;;;;5095296;28;20437;-70
2022/05/25 04:52:53;;;;;;;12.47;2.10;;;;;;;;;;5095690;28;20532;-70
2022/05/25 04:58:06;;;;;;;12.07;2.07;;;;;;;;;;5095369;28;20476;-70
2022/05/25 05:00:35;;;;;;;13.83;2.30;;;;;;;;;;5095134;28;20443;-71
2022/05/25 05:03:03;;;;;;;12.20;2.30;;;;;;;;;;5095261;28;20525;-70
2022/05/25 05:05:31;;;;;;;15.40;2.50;;;;;;;;;;5094975;28;20444;-70
2022/05/25 05:07:59;;;;;;;13.87;2.57;;;;;;;;;;5094778;28;20527;-71
2022/05/25 05:10:27;;;;;;;13.43;2.27;;;;;;;;;;5095090;28;20441;-71
2022/05/25 05:12:54;;;;;;;12.33;2.13;;;;;;;;;;5095033;28;20442;-71
2022/05/25 05:15:22;;;;;;;11.97;2.10;;;;;;;;;;5094450;28;20439;-70
2022/05/25 05:17:49;;;;;;;11.67;1.70;;;;;;;;;;5094489;28;20525;-70
2022/05/25 05:20:17;;;;;;;11.90;1.90;;;;;;;;;;5094812;28;20438;-71
2022/05/25 05:22:45;;;;;;;12.40;2.13;;;;;;;;;;5095254;28;20462;-70
2022/05/25 05:25:14;;;;;;;17.20;2.47;;;;;;;;;;5094851;28;20455;-71
2022/05/25 05:27:41;;;;;;;13.00;2.67;;;;;;;;;;5094499;28;20577;-71
2022/05/25 05:30:10;;;;;;;12.97;2.60;;;;;;;;;;5094504;28;20446;-71
2022/05/25 05:32:37;;;;;;;14.10;3.00;;;;;;;;;;5094452;28;20443;-71
2022/05/25 05:35:05;;;;;;;15.33;2.97;;;;;;;;;;5094243;28;20531;-71
2022/05/25 05:37:36;;;;;;;12.60;2.90;;;;;;;;;;5094304;28;20475;-71
2022/05/25 05:40:06;;;;;;;14.40;3.13;;;;;;;;;;5094482;28;20939;-70
2022/05/25 05:42:39;;;;;;;17.20;3.30;;;;;;;;;;5094227;28;20939;-71
2022/05/25 05:45:08;;;;;;;12.70;2.80;;;;;;;;;;5092977;28;20434;-71
2022/05/25 05:47:37;;;;;;;14.27;2.70;;;;;;;;;;5094190;28;20465;-70
2022/05/25 05:50:05;;;;;;;14.57;2.63;;;;;;;;;;5094316;28;20443;-71
2022/05/25 05:52:35;;;;;;;12.93;2.83;;;;;;;;;;5094062;28;20448;-71
2022/05/25 05:55:03;;;;;;;15.33;3.20;;;;;;;;;;5093942;28;20438;-70
2022/05/25 05:57:33;;;;;;;15.23;3.30;;;;;;;;;;5093937;28;20851;-71
2022/05/25 06:00:01;;;;;;;17.07;3.20;;;;;;;;;;5094053;28;20462;-71
2022/05/25 06:02:29;;;;;;;13.90;3.03;;;;;;;;;;5093878;28;20441;-70
2022/05/25 06:04:56;;;;;;;12.40;2.30;;;;;;;;;;5093817;28;20961;-70
2022/05/25 06:07:24;;;;;;;14.53;2.83;;;;;;;;;;5093718;28;20454;-70
2022/05/25 06:09:51;;;;;;;12.80;2.50;;;;;;;;;;5093683;28;20443;-71
2022/05/25 06:12:19;;;;;;;17.57;3.43;;;;;;;;;;5093742;28;20510;-71
2022/05/25 06:14:46;;;;;;;14.63;2.97;;;;;;;;;;5094147;28;20832;-71
2022/05/25 06:20:00;;;;;;;12.80;2.60;;;;;;;;;;5093620;28;20430;-70
2022/05/25 06:22:31;;;;;;;13.20;2.90;;;;;;;;;;5093700;28;20444;-71
2022/05/25 06:25:01;;;;;;;14.93;2.50;;;;;;;;;;5093624;28;20441;-71
2022/05/25 06:27:29;;;;;;;12.83;2.63;;;;;;;;;;5093743;28;20517;-71
2022/05/25 06:29:57;;;;;;;13.20;2.27;;;;;;;;;;5093916;28;20521;-71
2022/05/25 06:32:27;;;;;;;14.23;2.50;;;;;;;;;;5093175;28;20966;-71
2022/05/25 06:34:54;;;;;;;13.23;2.77;;;;;;;;;;5092894;28;20446;-71
2022/05/25 06:37:23;;;;;;;14.77;3.10;;;;;;;;;;5093045;28;20477;-70
2022/05/25 06:39:51;;;;;;;12.47;2.27;;;;;;;;;;5093147;28;20993;-70
2022/05/25 06:42:19;;;;;;;12.03;2.50;;;;;;;;;;5093339;28;20541;-71
2022/05/25 06:44:47;;;;;;;12.83;2.73;;;;;;;;;;5093037;28;20443;-70
2022/05/25 06:47:16;;;;;;;21.43;2.80;;;;;;;;;;5092807;28;20446;-71
2022/05/25 06:49:45;;;;;;;13.70;2.70;;;;;;;;;;5093478;28;20434;-71
2022/05/25 06:52:13;;;;;;;13.10;2.70;;;;;;;;;;5093196;28;20434;-71
2022/05/25 06:54:42;;;;;;;15.83;3.27;;;;;;;;;;5092844;28;20524;-71
2022/05/25 06:57:09;;;;;;;13.03;2.70;;;;;;;;;;5092746;28;20442;-70
2022/05/25 06:59:38;;;;;;;14.90;2.73;;;;;;;;;;5092552;28;20457;-70
2022/05/25 07:02:05;;;;;;;13.40;2.70;;;;;;;;;;5092776;28;20958;-71
2022/05/25 07:04:33;;;;;;;12.80;2.97;;;;;;;;;;5092696;28;20453;-71
2022/05/25 07:07:04;;;;;;;13.60;2.27;;;;;;;;;;5092176;28;20884;-71
2022/05/25 07:09:31;;;;;;;14.30;3.00;;;;;;;;;;5092497;28;20939;-70
2022/05/25 07:11:59;;;;;;;13.47;2.70;;;;;;;;;;5092484;28;20942;-70
2022/05/25 07:14:27;;;;;;;14.20;2.97;;;;;;;;;;5092584;28;20529;-71
2022/05/25 07:16:55;;;;;;;16.23;2.30;;;;;;;;;;5092543;28;20446;-71
2022/05/25 07:19:23;;;;;;;13.87;2.67;;;;;;;;;;5092263;28;20566;-71
2022/05/25 07:21:50;;;;;;;12.87;2.87;;;;;;;;;;5092406;28;20453;-71
2022/05/25 07:24:19;;;;;;;12.20;2.30;;;;;;;;;;5092324;28;20445;-71
2022/05/25 07:26:47;;;;;;;13.30;2.80;;;;;;;;;;5092513;28;20449;-71
2022/05/25 07:29:14;;;;;;;13.50;2.80;;;;;;;;;;5092424;28;20438;-72
2022/05/25 07:31:46;;;;;;;12.63;2.70;;;;;;;;;;5092240;28;20939;-71
2022/05/25 07:34:14;;;;;;;13.53;2.90;;;;;;;;;;5091823;28;20438;-71
2022/05/25 07:36:43;;;;;;;13.17;3.00;;;;;;;;;;5092322;28;20437;-71
2022/05/25 07:39:13;;;;;;;14.27;3.10;;;;;;;;;;5091998;28;20474;-71
2022/05/25 07:41:43;;;;;;;12.47;2.40;;;;;;;;;;5092053;28;20444;-70
2022/05/25 07:44:13;;;;;;;13.37;3.27;;;;;;;;;;5092391;28;20457;-71
2022/05/25 07:46:40;;;;;;;13.93;2.63;;;;;;;;;;5092184;28;20821;-71
2022/05/25 07:49:07;;;;;;;12.60;2.70;;;;;;;;;;5092276;28;20457;-70
2022/05/25 07:51:35;;;;;;;13.60;2.63;;;;;;;;;;5091598;28;20441;-71
2022/05/25 07:54:03;;;;;;;12.80;2.40;;;;;;;;;;5091965;28;20445;-71
2022/05/25 07:56:31;;;;;;;13.50;2.30;;;;;;;;;;5092099;28;20802;-70
2022/05/25 07:59:01;;;;;;;13.93;3.17;;;;;;;;;;5092042;28;20491;-70
2022/05/25 08:07:00;;;;;;;15.83;3.40;;;;;;;;;;5092387;28;20467;-70
2022/05/25 08:09:29;;;;;;;18.80;2.70;;;;;;;;;;5095828;28;20447;-71
2022/05/25 08:11:56;;;;;;;13.60;2.80;;;;;;;;;;5096215;28;20520;-70
2022/05/25 08:14:26;;;;;;;13.40;2.70;;;;;;;;;;5095923;28;20502;-70
2022/05/25 08:16:53;;;;;;;13.07;2.67;;;;;;;;;;5096268;28;20526;-70
2022/05/25 08:19:21;;;;;;;13.20;2.53;;;;;;;;;;5095340;28;20701;-70
2022/05/25 08:21:48;;;;;;;15.57;2.60;;;;;;;;;;5095806;28;20961;-70
2022/05/25 08:24:16;;;;;;;13.13;2.00;;;;;;;;;;5096178;28;20438;-70
2022/05/25 08:26:44;;;;;;;14.67;2.40;;;;;;;;;;5095805;28;20442;-70
2022/05/25 08:29:12;;;;;;;12.60;2.40;;;;;;;;;;5095574;28;20454;-70
2022/05/25 08:31:43;;;;;;;15.47;2.17;;;;;;;;;;5095519;28;20446;-70
2022/05/25 08:34:10;;;;;;;15.50;2.87;;;;;;;;;;5095287;28;20434;-70
2022/05/25 08:36:38;;;;;;;12.50;2.27;;;;;;;;;;5095525;28;20946;-70
2022/05/25 08:39:05;;;;;;;15.90;2.43;;;;;;;;;;5095482;28;20477;-71
2022/05/25 08:41:35;;;;;;;13.80;2.40;;;;;;;;;;5095103;28;20441;-70
2022/05/25 08:44:04;;;;;;;13.90;2.80;;;;;;;;;;5096167;28;20438;-70
2022/05/25 08:46:33;;;;;;;14.73;3.17;;;;;;;;;;5095343;28;20454;-70
2022/05/25 08:49:03;;;;;;;16.87;2.57;;;;;;;;;;5095442;28;20447;-70
2022/05/25 08:51:31;;;;;;;13.90;2.63;;;;;;;;;;5095230;28;20452;-70
2022/05/25 08:53:59;;;;;;;13.60;2.17;;;;;;;;;;5095228;28;20517;-70
2022/05/25 08:56:29;;;;;;;13.23;2.10;;;;;;;;;;5095061;28;20503;-70
2022/05/25 08:58:59;;;;;;;15.40;2.70;;;;;;;;;;5095237;28;20591;-70
2022/05/25 09:01:28;;;;;;;13.27;2.33;;;;;;;;;;5095170;28;20434;-71
2022/05/25 09:03:58;;;;;;;13.00;2.20;;;;;;;;;;5095236;28;20449;-70
2022/05/25 09:06:33;;;;;;;13.13;2.57;;;;;;;;;;5094947;28;20498;-70
2022/05/25 09:09:03;;;;;;;14.00;3.00;;;;;;;;;;5094968;28;20445;-70
2022/05/25 09:11:34;;;;;;;14.03;2.10;;;;;;;;;;5094895;28;21081;-70
2022/05/25 09:14:04;;;;;;;14.47;2.60;;;;;;;;;;5094985;28;20482;-70
2022/05/25 09:16:36;;;;;;;14.73;2.70;;;;;;;;;;5094875;28;20472;-70
2022/05/25 09:19:08;;;;;;;15.90;2.50;;;;;;;;;;5094639;28;20980;-70
2022/05/25 09:21:39;;;;;;;15.23;2.80;;;;;;;;;;5094464;28;20437;-70
2022/05/25 09:24:10;;;;;;;13.83;3.10;;;;;;;;;;5094698;28;20436;-70
2022/05/25 09:26:38;;;;;;;12.80;2.10;;;;;;;;;;5095075;28;20525;-70
2022/05/25 09:29:08;;;;;;;16.77;2.60;;;;;;;;;;5094528;28;20977;-70
2022/05/25 09:31:40;;;;;;;17.40;3.27;;;;;;;;;;5094235;28;20482;-70
2022/05/25 09:34:10;;;;;;;14.17;2.40;;;;;;;;;;5094491;28;20453;-70
2022/05/25 09:36:42;;;;;;;14.50;2.27;;;;;;;;;;5094483;28;20881;-70
2022/05/25 09:39:14;;;;;;;14.87;2.43;;;;;;;;;;5094775;28;20496;-70
2022/05/25 09:41:43;;;;;;;12.57;1.93;;;;;;;;;;5094365;28;20438;-70
2022/05/25 09:44:13;;;;;;;14.83;2.80;;;;;;;;;;5094405;28;20506;-70
2022/05/25 09:46:43;;;;;;;12.60;2.10;;;;;;;;;;5094508;28;20448;-71
2022/05/25 09:49:12;;;;;;;13.50;2.47;;;;;;;;;;5094580;28;20457;-71
2022/05/25 09:51:45;;;;;;;13.50;2.10;;;;;;;;;;5094408;28;20430;-71
2022/05/25 09:54:15;;;;;;;13.17;2.27;;;;;;;;;;5094383;28;20445;-71
2022/05/25 09:56:45;;;;;;;12.17;1.90;;;;;;;;;;5094000;28;20446;-71
2022/05/25 09:59:15;;;;;;;13.93;2.30;;;;;;;;;;5093895;28;20481;-72
2022/05/25 10:01:44;;;;;;;13.60;2.30;;;;;;;;;;5094604;28;20432;-71
2022/05/25 10:04:15;;;;;;;14.97;2.10;;;;;;;;;;5094481;28;20483;-71
2022/05/25 10:06:51;;;;;;;13.17;2.17;;;;;;;;;;5094114;28;20456;-72
2022/05/25 10:09:19;;;;;;;18.27;2.20;;;;;;;;;;5093551;28;20458;-71
2022/05/25 10:11:48;;;;;;;14.80;2.40;;;;;;;;;;5094226;28;21054;-71
2022/05/25 10:14:18;;;;;;;13.53;2.03;;;;;;;;;;5094291;28;20484;-71
2022/05/25 10:16:46;;;;;;;14.70;2.33;;;;;;;;;;5094263;28;20458;-72
2022/05/25 10:19:16;;;;;;;13.60;2.73;;;;;;;;;;5093487;28;20868;-73
2022/05/25 10:21:47;;;;;;;16.33;2.10;;;;;;;;;;5093612;28;20447;-71
2022/05/25 10:24:17;;;;;;;13.30;1.90;;;;;;;;;;5094294;28;20442;-71
2022/05/25 10:26:49;;;;;;;12.40;2.30;;;;;;;;;;5093481;28;20940;-71
2022/05/25 10:36:45;;;;;;;13.17;2.57;;;;;;;;;;5093198;28;20445;-72
2022/05/25 10:37:59;;;;;;;16.13;3.63;;;;;;;;;;5067221;28;20442;-71
2022/05/25 10:40:28;;;;;;;13.83;2.60;;;;;;;;;;5093116;28;20857;-71
2022/05/25 10:42:58;;;;;;;12.77;2.30;;;;;;;;;;5093131;28;20438;-70
2022/05/25 10:45:32;;;;;;;12.07;2.03;;;;;;;;;;5093076;28;20431;-71
2022/05/25 10:48:07;;;;;;;12.23;2.27;;;;;;;;;;5093107;28;20468;-71
2022/05/25 10:50:38;;;;;;;13.30;2.13;;;;;;;;;;5093087;28;20522;-71
2022/05/25 10:53:08;;;;;;;14.00;2.43;;;;;;;;;;5092894;28;20951;-71
2022/05/25 10:55:42;;;;;;;12.60;2.70;;;;;;;;;;5092669;28;20438;-71
2022/05/25 10:58:22;;;;;;;14.07;2.60;;;;;;;;;;5092912;28;20452;-71
2022/05/25 11:00:56;;;;;;;13.80;2.47;;;;;;;;;;5092965;28;20823;-70
2022/05/25 11:03:43;;;;;;;18.00;2.70;;;;;;;;;;5092416;28;20430;-71
2022/05/25 11:06:24;;;;;;;14.37;2.30;;;;;;;;;;5092695;28;20962;-71
2022/05/25 11:08:55;;;;;;;13.13;2.53;;;;;;;;;;5092836;28;20440;-71
2022/05/25 11:11:28;;;;;;;14.27;2.43;;;;;;;;;;5092398;28;20969;-71
2022/05/25 11:14:04;;;;;;;17.30;2.80;;;;;;;;;;5092573;28;20453;-71
2022/05/25 11:16:42;;;;;;;16.40;2.87;;;;;;;;;;5092699;28;20448;-71
2022/05/25 11:19:17;;;;;;;13.93;2.67;;;;;;;;;;5092723;28;20855;-71
2022/05/25 11:21:49;;;;;;;14.43;2.70;;;;;;;;;;5092578;28;20445;-71
2022/05/25 11:24:23;;;;;;;13.87;2.90;;;;;;;;;;5092351;28;20451;-71
2022/05/25 11:27:01;;;;;;;14.70;3.10;;;;;;;;;;5092382;28;20440;-71
2022/05/25 11:29:36;;;;;;;14.20;2.97;;;;;;;;;;5092292;28;20430;-71
2022/05/25 11:32:09;;;;;;;14.37;2.60;;;;;;;;;;5092538;28;20448;-71
2022/05/25 11:34:45;;;;;;;14.50;2.80;;;;;;;;;;5091801;28;20470;-71
2022/05/25 11:37:22;;;;;;;13.90;2.70;;;;;;;;;;5092466;28;20441;-71
2022/05/25 11:39:57;;;;;;;19.23;3.27;;;;;;;;;;5092324;28;20480;-71
2022/05/25 11:42:31;;;;;;;16.40;4.00;;;;;;;;;;5092368;28;20999;-71
2022/05/25 11:45:04;;;;;;;13.90;2.37;;;;;;;;;;5092102;28;20445;-71
2022/05/25 11:47:40;;;;;;;16.97;4.00;;;;;;;;;;5092144;28;20443;-71
2022/05/25 11:50:16;;;;;;;13.20;2.70;;;;;;;;;;5092696;28;20438;-71
2022/05/25 11:52:55;;;;;;;19.53;3.07;;;;;;;;;;5092345;28;20441;-71
2022/05/25 11:55:25;;;;;;;13.83;2.80;;;;;;;;;;5091842;28;20436;-72
2022/05/25 11:58:01;;;;;;;14.17;2.60;;;;;;;;;;5092353;28;20513;-72
2022/05/25 12:00:32;;;;;;;15.10;2.80;;;;;;;;;;5092772;28;20550;-71
2022/05/25 12:03:10;;;;;;;14.50;2.70;;;;;;;;;;5091958;28;20441;-71
2022/05/25 12:05:44;;;;;;;15.67;2.83;;;;;;;;;;5091651;28;20456;-71
2022/05/25 12:08:19;;;;;;;15.50;2.80;;;;;;;;;;5091840;28;20445;-71
2022/05/25 12:10:47;;;;;;;13.90;3.30;;;;;;;;;;5092358;28;20445;-71
2022/05/25 12:13:21;;;;;;;13.83;3.00;;;;;;;;;;5091491;28;20528;-71
2022/05/25 12:15:55;;;;;;;15.03;3.40;;;;;;;;;;5091736;28;20449;-71
2022/05/25 12:18:27;;;;;;;14.77;3.20;;;;;;;;;;5091775;28;20472;-71
2022/05/25 12:20:57;;;;;;;15.50;3.67;;;;;;;;;;5091669;28;20479;-71
2022/05/25 12:23:26;;;;;;;14.67;3.00;;;;;;;;;;5091869;28;20448;-71
2022/05/25 12:25:56;;;;;;;20.27;3.40;;;;;;;;;;5091805;28;20449;-71
2022/05/25 12:28:28;;;;;;;15.60;2.97;;;;;;;;;;5091685;28;20463;-71
2022/05/25 12:31:00;;;;;;;14.90;3.47;;;;;;;;;;5091810;28;20833;-71
2022/05/25 12:33:29;;;;;;;14.20;2.87;;;;;;;;;;5091424;28;20445;-71
2022/05/25 12:35:57;;;;;;;14.40;3.60;;;;;;;;;;5091421;28;20465;-71
2022/05/25 12:38:26;;;;;;;15.67;4.47;;;;;;;;;;5091626;28;20454;-71
2022/05/25 12:40:53;;;;;;;13.80;3.30;;;;;;;;;;5091474;28;20482;-72
2022/05/25 12:43:40;;;;;;;15.67;3.67;;;;;;;;;;5091156;28;20954;-71
2022/05/25 12:48:57;;;;;;;14.33;3.40;;;;;;;;;;5091761;28;20432;-71
2022/05/25 12:51:30;;;;;;;14.20;3.17;;;;;;;;;;5091726;28;20498;-71
2022/05/25 12:53:58;;;;;;;15.47;3.63;;;;;;;;;;5093560;28;20445;-71
2022/05/25 12:56:33;;;;;;;17.43;4.37;;;;;;;;;;5095211;28;20508;-71
2022/05/25 12:59:02;;;;;;;14.07;4.00;;;;;;;;;;5095337;28;20464;-71
2022/05/25 13:01:33;;;;;;;15.23;3.40;;;;;;;;;;5094828;28;20443;-71
2022/05/25 13:04:19;;;;;;;13.90;3.00;;;;;;;;;;5095133;28;20443;-71
2022/05/25 13:07:07;;;;;;;18.83;3.73;;;;;;;;;;5095257;28;20444;-71
2022/05/25 13:09:40;;;;;;;16.80;2.93;;;;;;;;;;5095012;28;20461;-71
2022/05/25 13:12:26;;;;;;;14.50;3.63;;;;;;;;;;5094960;28;20441;-72
2022/05/25 13:14:55;;;;;;;14.53;3.43;;;;;;;;;;5095104;28;20434;-71
2022/05/25 13:17:45;;;;;;;13.80;3.33;;;;;;;;;;5094617;28;20506;-71
2022/05/25 13:20:16;;;;;;;14.70;3.60;;;;;;;;;;5095003;28;20477;-71
2022/05/25 13:22:45;;;;;;;15.30;3.30;;;;;;;;;;5094612;28;20823;-71
2022/05/25 13:25:15;;;;;;;13.87;3.23;;;;;;;;;;5094652;28;20528;-71
2022/05/25 13:27:56;;;;;;;16.93;3.83;;;;;;;;;;5094913;28;21059;-71
2022/05/25 13:30:29;;;;;;;19.13;3.70;;;;;;;;;;5094763;28;20447;-71
2022/05/25 13:32:58;;;;;;;17.70;4.53;;;;;;;;;;5094732;28;20450;-71
2022/05/25 13:35:36;;;;;;;15.63;3.73;;;;;;;;;;5093753;28;20474;-71
2022/05/25 13:38:09;;;;;;;15.53;3.10;;;;;;;;;;5094421;28;20967;-71
2022/05/25 13:40:38;;;;;;;15.27;3.33;;;;;;;;;;5094711;28;20982;-71
2022/05/25 13:43:07;;;;;;;19.83;4.13;;;;;;;;;;5094386;28;20444;-71
2022/05/25 13:45:41;;;;;;;16.67;3.83;;;;;;;;;;5094378;28;20449;-71
2022/05/25 13:48:13;;;;;;;15.50;3.40;;;;;;;;;;5094317;28;20949;-71
2022/05/25 13:50:42;;;;;;;15.73;4.10;;;;;;;;;;5094604;28;20446;-71
2022/05/25 13:53:15;;;;;;;15.13;3.47;;;;;;;;;;5094154;28;20970;-72
2022/05/25 13:55:43;;;;;;;16.73;3.73;;;;;;;;;;5094216;28;20438;-71
2022/05/25 13:58:12;;;;;;;14.40;4.00;;;;;;;;;;5094131;28;20536;-72
2022/05/25 14:00:42;;;;;;;14.87;3.83;;;;;;;;;;5094157;28;20480;-71
2022/05/25 14:03:23;;;;;;;15.17;3.60;;;;;;;;;;5094096;28;20460;-71
2022/05/25 14:05:52;;;;;;;14.30;3.30;;;;;;;;;;5092999;28;20449;-72
2022/05/25 14:08:22;;;;;;;15.97;3.77;;;;;;;;;;5093756;28;20434;-72
2022/05/25 14:10:58;;;;;;;17.80;3.97;;;;;;;;;;5093767;28;20434;-71
2022/05/25 14:13:27;;;;;;;14.53;3.57;;;;;;;;;;5093533;28;20434;-72
2022/05/25 14:15:58;;;;;;;14.03;3.77;;;;;;;;;;5093621;28;20442;-71
2022/05/25 14:18:28;;;;;;;14.00;3.20;;;;;;;;;;5093763;28;20474;-71
2022/05/25 14:20:55;;;;;;;14.20;3.43;;;;;;;;;;5093548;28;20507;-72
2022/05/25 14:23:27;;;;;;;17.50;4.07;;;;;;;;;;5093363;28;20446;-71
2022/05/25 14:25:57;;;;;;;17.50;4.20;;;;;;;;;;5093477;28;20449;-72
2022/05/25 14:28:28;;;;;;;17.37;4.70;;;;;;;;;;5093934;28;20434;-72
2022/05/25 14:30:56;;;;;;;15.80;4.80;;;;;;;;;;5093928;28;20444;-71
2022/05/25 14:33:26;;;;;;;18.23;4.03;;;;;;;;;;5093055;28;20451;-72
2022/05/25 14:35:57;;;;;;;18.00;4.00;;;;;;;;;;5093308;28;20468;-72
2022/05/25 14:38:29;;;;;;;15.07;4.10;;;;;;;;;;5094029;28;20438;-72
2022/05/25 14:40:57;;;;;;;16.93;4.40;;;;;;;;;;5093268;28;20477;-71
2022/05/25 14:43:39;;;;;;;14.77;4.20;;;;;;;;;;5093121;28;20965;-71
2022/05/25 14:46:08;;;;;;;15.60;4.10;;;;;;;;;;5093024;28;20444;-72
2022/05/25 14:48:41;;;;;;;16.90;4.50;;;;;;;;;;5093011;28;20438;-71
2022/05/25 14:51:10;;;;;;;15.77;4.57;;;;;;;;;;5093264;28;20449;-71
2022/05/25 14:53:38;;;;;;;18.33;5.43;;;;;;;;;;5092682;28;20892;-71
2022/05/25 14:56:09;;;;;;;17.13;4.40;;;;;;;;;;5093034;28;20434;-71
2022/05/25 14:58:38;;;;;;;14.90;4.60;;;;;;;;;;5092856;28;20468;-72
2022/05/25 15:01:12;;;;;;;17.43;4.30;;;;;;;;;;5093137;28;20497;-71
2022/05/25 15:03:41;;;;;;;15.90;4.50;;;;;;;;;;5093003;28;20444;-72
2022/05/25 15:06:11;;;;;;;20.63;5.23;;;;;;;;;;5092678;28;20456;-71
2022/05/25 15:08:40;;;;;;;15.50;4.10;;;;;;;;;;5092670;28;21017;-72
2022/05/25 15:11:22;;;;;;;19.37;4.53;;;;;;;;;;5092834;28;20456;-71